sensor_id;sensor_type;location;lat;lon;timestamp;P1;durP1;ratioP1;P2;durP2;ratioP2
63312;SDS011;49442;45.640;13.812;2023-08-01T00:00:25;6.57;;;2.25;;
63312;SDS011;49442;45.640;13.812;2023-08-01T00:02:50;9.27;;;2.35;;
63312;SDS011;49442;45.640;13.812;2023-08-01T00:05:16;2.90;;;2.17;;
63312;SDS011;49442;45.640;13.812;2023-08-01T00:07:42;8.52;;;2.50;;
63312;SDS011;49442;45.640;13.812;2023-08-01T00:10:08;2.92;;;2.00;;
63312;SDS011;49442;45.640;13.812;2023-08-01T00:12:34;3.38;;;1.90;;
63312;SDS011;49442;45.640;13.812;2023-08-01T00:14:59;8.93;;;2.20;;
63312;SDS011;49442;45.640;13.812;2023-08-01T00:17:25;5.10;;;2.50;;
63312;SDS011;49442;45.640;13.812;2023-08-01T00:19:51;3.63;;;1.92;;
63312;SDS011;49442;45.640;13.812;2023-08-01T00:22:17;4.05;;;2.20;;
63312;SDS011;49442;45.640;13.812;2023-08-01T00:24:42;5.63;;;2.17;;
63312;SDS011;49442;45.640;13.812;2023-08-01T00:27:08;5.88;;;2.30;;
63312;SDS011;49442;45.640;13.812;2023-08-01T00:29:35;4.22;;;2.03;;
63312;SDS011;49442;45.640;13.812;2023-08-01T00:32:01;6.50;;;2.65;;
63312;SDS011;49442;45.640;13.812;2023-08-01T00:34:27;10.77;;;2.30;;
63312;SDS011;49442;45.640;13.812;2023-08-01T00:36:52;3.72;;;2.17;;
63312;SDS011;49442;45.640;13.812;2023-08-01T00:39:18;4.53;;;2.10;;
63312;SDS011;49442;45.640;13.812;2023-08-01T00:41:44;5.65;;;2.03;;
63312;SDS011;49442;45.640;13.812;2023-08-01T00:44:09;2.42;;;1.80;;
63312;SDS011;49442;45.640;13.812;2023-08-01T00:46:35;3.92;;;1.90;;
63312;SDS011;49442;45.640;13.812;2023-08-01T00:49:02;5.30;;;1.70;;
63312;SDS011;49442;45.640;13.812;2023-08-01T00:51:28;4.43;;;2.40;;
63312;SDS011;49442;45.640;13.812;2023-08-01T00:53:56;5.22;;;2.47;;
63312;SDS011;49442;45.640;13.812;2023-08-01T00:56:22;4.50;;;2.00;;
63312;SDS011;49442;45.640;13.812;2023-08-01T00:58:48;3.03;;;2.00;;
63312;SDS011;49442;45.640;13.812;2023-08-01T01:01:14;3.67;;;1.80;;
63312;SDS011;49442;45.640;13.812;2023-08-01T01:03:40;3.28;;;1.80;;
63312;SDS011;49442;45.640;13.812;2023-08-01T01:06:14;4.25;;;2.53;;
63312;SDS011;49442;45.640;13.812;2023-08-01T01:08:46;2.67;;;1.70;;
63312;SDS011;49442;45.640;13.812;2023-08-01T01:11:12;4.18;;;1.80;;
63312;SDS011;49442;45.640;13.812;2023-08-01T01:13:38;4.35;;;1.90;;
63312;SDS011;49442;45.640;13.812;2023-08-01T01:16:04;8.50;;;2.20;;
63312;SDS011;49442;45.640;13.812;2023-08-01T01:18:29;3.97;;;2.10;;
63312;SDS011;49442;45.640;13.812;2023-08-01T01:20:55;2.28;;;1.85;;
63312;SDS011;49442;45.640;13.812;2023-08-01T01:23:21;5.72;;;2.00;;
63312;SDS011;49442;45.640;13.812;2023-08-01T01:25:47;5.32;;;2.00;;
63312;SDS011;49442;45.640;13.812;2023-08-01T01:28:17;5.95;;;1.80;;
63312;SDS011;49442;45.640;13.812;2023-08-01T01:30:44;3.13;;;2.08;;
63312;SDS011;49442;45.640;13.812;2023-08-01T01:33:10;3.05;;;1.70;;
63312;SDS011;49442;45.640;13.812;2023-08-01T01:35:37;3.13;;;2.03;;
63312;SDS011;49442;45.640;13.812;2023-08-01T01:38:04;5.70;;;2.20;;
63312;SDS011;49442;45.640;13.812;2023-08-01T01:40:30;3.38;;;2.30;;
63312;SDS011;49442;45.640;13.812;2023-08-01T01:42:56;6.05;;;2.70;;
63312;SDS011;49442;45.640;13.812;2023-08-01T01:45:24;8.77;;;2.40;;
63312;SDS011;49442;45.640;13.812;2023-08-01T01:47:49;7.70;;;1.80;;
63312;SDS011;49442;45.640;13.812;2023-08-01T01:50:15;3.25;;;2.00;;
63312;SDS011;49442;45.640;13.812;2023-08-01T01:52:40;4.55;;;2.10;;
63312;SDS011;49442;45.640;13.812;2023-08-01T01:55:06;2.63;;;2.20;;
63312;SDS011;49442;45.640;13.812;2023-08-01T01:57:32;3.40;;;2.10;;
63312;SDS011;49442;45.640;13.812;2023-08-01T01:59:58;3.55;;;1.85;;
63312;SDS011;49442;45.640;13.812;2023-08-01T02:02:23;6.22;;;2.05;;
63312;SDS011;49442;45.640;13.812;2023-08-01T02:04:49;11.13;;;2.38;;
63312;SDS011;49442;45.640;13.812;2023-08-01T02:07:15;3.72;;;2.30;;
63312;SDS011;49442;45.640;13.812;2023-08-01T02:09:41;2.72;;;1.70;;
63312;SDS011;49442;45.640;13.812;2023-08-01T02:12:07;4.45;;;1.80;;
63312;SDS011;49442;45.640;13.812;2023-08-01T02:14:35;4.20;;;2.28;;
63312;SDS011;49442;45.640;13.812;2023-08-01T02:17:01;3.10;;;2.00;;
63312;SDS011;49442;45.640;13.812;2023-08-01T02:19:27;3.80;;;2.10;;
63312;SDS011;49442;45.640;13.812;2023-08-01T02:21:53;3.40;;;2.03;;
63312;SDS011;49442;45.640;13.812;2023-08-01T02:24:19;3.97;;;2.05;;
63312;SDS011;49442;45.640;13.812;2023-08-01T02:26:44;4.72;;;2.30;;
63312;SDS011;49442;45.640;13.812;2023-08-01T02:29:10;4.15;;;1.67;;
63312;SDS011;49442;45.640;13.812;2023-08-01T02:31:36;4.68;;;2.30;;
63312;SDS011;49442;45.640;13.812;2023-08-01T02:34:01;8.77;;;2.20;;
63312;SDS011;49442;45.640;13.812;2023-08-01T02:36:27;3.63;;;1.98;;
63312;SDS011;49442;45.640;13.812;2023-08-01T02:38:53;4.28;;;2.25;;
63312;SDS011;49442;45.640;13.812;2023-08-01T02:41:18;3.30;;;2.05;;
63312;SDS011;49442;45.640;13.812;2023-08-01T02:43:44;5.40;;;2.15;;
63312;SDS011;49442;45.640;13.812;2023-08-01T02:46:09;4.13;;;1.92;;
63312;SDS011;49442;45.640;13.812;2023-08-01T02:48:35;5.38;;;2.30;;
63312;SDS011;49442;45.640;13.812;2023-08-01T02:51:01;3.47;;;2.42;;
63312;SDS011;49442;45.640;13.812;2023-08-01T02:53:27;8.05;;;2.10;;
63312;SDS011;49442;45.640;13.812;2023-08-01T02:55:53;10.10;;;2.45;;
63312;SDS011;49442;45.640;13.812;2023-08-01T02:58:18;7.15;;;2.53;;
63312;SDS011;49442;45.640;13.812;2023-08-01T03:00:44;4.88;;;2.10;;
63312;SDS011;49442;45.640;13.812;2023-08-01T03:03:10;6.30;;;2.03;;
63312;SDS011;49442;45.640;13.812;2023-08-01T03:05:36;8.32;;;2.08;;
63312;SDS011;49442;45.640;13.812;2023-08-01T03:08:02;7.72;;;2.33;;
63312;SDS011;49442;45.640;13.812;2023-08-01T03:10:29;6.07;;;2.10;;
63312;SDS011;49442;45.640;13.812;2023-08-01T03:12:54;3.67;;;2.03;;
63312;SDS011;49442;45.640;13.812;2023-08-01T03:15:20;8.48;;;2.45;;
63312;SDS011;49442;45.640;13.812;2023-08-01T03:17:46;7.32;;;2.05;;
63312;SDS011;49442;45.640;13.812;2023-08-01T03:20:11;6.32;;;2.10;;
63312;SDS011;49442;45.640;13.812;2023-08-01T03:22:38;3.65;;;2.05;;
63312;SDS011;49442;45.640;13.812;2023-08-01T03:25:05;4.60;;;2.47;;
63312;SDS011;49442;45.640;13.812;2023-08-01T03:27:32;3.92;;;2.10;;
63312;SDS011;49442;45.640;13.812;2023-08-01T03:30:02;4.75;;;2.10;;
63312;SDS011;49442;45.640;13.812;2023-08-01T03:32:29;13.25;;;2.10;;
63312;SDS011;49442;45.640;13.812;2023-08-01T03:34:55;4.38;;;2.35;;
63312;SDS011;49442;45.640;13.812;2023-08-01T03:37:21;3.10;;;1.55;;
63312;SDS011;49442;45.640;13.812;2023-08-01T03:39:47;8.13;;;2.08;;
63312;SDS011;49442;45.640;13.812;2023-08-01T03:42:12;3.22;;;2.03;;
63312;SDS011;49442;45.640;13.812;2023-08-01T03:44:38;4.05;;;2.10;;
63312;SDS011;49442;45.640;13.812;2023-08-01T03:47:04;3.15;;;2.03;;
63312;SDS011;49442;45.640;13.812;2023-08-01T03:49:29;4.53;;;2.47;;
63312;SDS011;49442;45.640;13.812;2023-08-01T03:51:55;2.28;;;1.80;;
63312;SDS011;49442;45.640;13.812;2023-08-01T03:54:21;5.75;;;2.13;;
63312;SDS011;49442;45.640;13.812;2023-08-01T03:56:46;3.40;;;1.73;;
63312;SDS011;49442;45.640;13.812;2023-08-01T03:59:15;4.20;;;2.40;;
63312;SDS011;49442;45.640;13.812;2023-08-01T04:01:41;2.25;;;1.73;;
63312;SDS011;49442;45.640;13.812;2023-08-01T04:04:08;6.60;;;2.50;;
63312;SDS011;49442;45.640;13.812;2023-08-01T04:06:34;6.05;;;2.00;;
63312;SDS011;49442;45.640;13.812;2023-08-01T04:09:00;5.10;;;2.10;;
63312;SDS011;49442;45.640;13.812;2023-08-01T04:11:25;3.40;;;1.98;;
63312;SDS011;49442;45.640;13.812;2023-08-01T04:13:52;4.97;;;2.03;;
63312;SDS011;49442;45.640;13.812;2023-08-01T04:16:18;8.13;;;2.05;;
63312;SDS011;49442;45.640;13.812;2023-08-01T04:18:44;2.55;;;1.73;;
63312;SDS011;49442;45.640;13.812;2023-08-01T04:21:11;6.45;;;2.47;;
63312;SDS011;49442;45.640;13.812;2023-08-01T04:23:38;3.80;;;1.85;;
63312;SDS011;49442;45.640;13.812;2023-08-01T04:26:04;8.23;;;2.47;;
63312;SDS011;49442;45.640;13.812;2023-08-01T04:28:31;7.88;;;2.55;;
63312;SDS011;49442;45.640;13.812;2023-08-01T04:30:57;4.32;;;1.98;;
63312;SDS011;49442;45.640;13.812;2023-08-01T04:33:22;4.15;;;1.80;;
63312;SDS011;49442;45.640;13.812;2023-08-01T04:35:48;4.28;;;2.03;;
63312;SDS011;49442;45.640;13.812;2023-08-01T04:38:14;5.57;;;1.88;;
63312;SDS011;49442;45.640;13.812;2023-08-01T04:40:41;12.45;;;2.30;;
63312;SDS011;49442;45.640;13.812;2023-08-01T04:43:06;3.97;;;2.17;;
63312;SDS011;49442;45.640;13.812;2023-08-01T04:45:32;5.05;;;2.28;;
63312;SDS011;49442;45.640;13.812;2023-08-01T04:47:57;5.80;;;1.77;;
63312;SDS011;49442;45.640;13.812;2023-08-01T04:50:23;3.80;;;2.30;;
63312;SDS011;49442;45.640;13.812;2023-08-01T04:52:49;5.25;;;2.13;;
63312;SDS011;49442;45.640;13.812;2023-08-01T04:55:14;2.75;;;1.90;;
63312;SDS011;49442;45.640;13.812;2023-08-01T04:57:40;3.15;;;2.10;;
63312;SDS011;49442;45.640;13.812;2023-08-01T05:00:06;4.90;;;2.05;;
63312;SDS011;49442;45.640;13.812;2023-08-01T05:02:32;3.88;;;1.80;;
63312;SDS011;49442;45.640;13.812;2023-08-01T05:04:57;2.92;;;2.13;;
63312;SDS011;49442;45.640;13.812;2023-08-01T05:07:23;2.22;;;1.75;;
63312;SDS011;49442;45.640;13.812;2023-08-01T05:09:49;4.10;;;2.42;;
63312;SDS011;49442;45.640;13.812;2023-08-01T05:12:14;8.15;;;2.35;;
63312;SDS011;49442;45.640;13.812;2023-08-01T05:14:40;4.10;;;1.90;;
63312;SDS011;49442;45.640;13.812;2023-08-01T05:17:06;6.05;;;1.95;;
63312;SDS011;49442;45.640;13.812;2023-08-01T05:19:31;2.58;;;1.80;;
63312;SDS011;49442;45.640;13.812;2023-08-01T05:21:57;10.15;;;2.13;;
63312;SDS011;49442;45.640;13.812;2023-08-01T05:24:23;3.45;;;1.70;;
63312;SDS011;49442;45.640;13.812;2023-08-01T05:26:48;3.08;;;1.98;;
63312;SDS011;49442;45.640;13.812;2023-08-01T05:29:14;3.53;;;1.80;;
63312;SDS011;49442;45.640;13.812;2023-08-01T05:31:40;7.25;;;2.00;;
63312;SDS011;49442;45.640;13.812;2023-08-01T05:34:05;8.88;;;2.05;;
63312;SDS011;49442;45.640;13.812;2023-08-01T05:36:31;9.73;;;2.08;;
63312;SDS011;49442;45.640;13.812;2023-08-01T05:38:56;6.72;;;1.98;;
63312;SDS011;49442;45.640;13.812;2023-08-01T05:41:22;7.57;;;2.42;;
63312;SDS011;49442;45.640;13.812;2023-08-01T05:43:48;4.13;;;2.10;;
63312;SDS011;49442;45.640;13.812;2023-08-01T05:46:14;3.47;;;1.90;;
63312;SDS011;49442;45.640;13.812;2023-08-01T05:48:41;6.57;;;1.88;;
63312;SDS011;49442;45.640;13.812;2023-08-01T05:51:07;6.65;;;1.95;;
63312;SDS011;49442;45.640;13.812;2023-08-01T05:53:32;6.00;;;1.70;;
63312;SDS011;49442;45.640;13.812;2023-08-01T05:55:58;5.32;;;1.90;;
63312;SDS011;49442;45.640;13.812;2023-08-01T05:58:24;5.10;;;1.85;;
63312;SDS011;49442;45.640;13.812;2023-08-01T06:00:49;5.82;;;1.90;;
63312;SDS011;49442;45.640;13.812;2023-08-01T06:03:15;3.65;;;1.80;;
63312;SDS011;49442;45.640;13.812;2023-08-01T06:05:41;5.05;;;1.83;;
63312;SDS011;49442;45.640;13.812;2023-08-01T06:08:07;1.73;;;1.52;;
63312;SDS011;49442;45.640;13.812;2023-08-01T06:10:33;7.15;;;2.00;;
63312;SDS011;49442;45.640;13.812;2023-08-01T06:13:08;7.35;;;1.92;;
63312;SDS011;49442;45.640;13.812;2023-08-01T06:15:36;5.75;;;1.48;;
63312;SDS011;49442;45.640;13.812;2023-08-01T06:18:02;4.70;;;1.70;;
63312;SDS011;49442;45.640;13.812;2023-08-01T06:20:27;4.70;;;1.55;;
63312;SDS011;49442;45.640;13.812;2023-08-01T06:22:53;7.95;;;1.90;;
63312;SDS011;49442;45.640;13.812;2023-08-01T06:25:19;10.95;;;1.92;;
63312;SDS011;49442;45.640;13.812;2023-08-01T06:27:45;3.60;;;1.67;;
63312;SDS011;49442;45.640;13.812;2023-08-01T06:30:10;7.90;;;1.88;;
63312;SDS011;49442;45.640;13.812;2023-08-01T06:32:36;3.72;;;1.92;;
63312;SDS011;49442;45.640;13.812;2023-08-01T06:35:02;6.85;;;1.80;;
63312;SDS011;49442;45.640;13.812;2023-08-01T06:37:28;5.55;;;1.80;;
63312;SDS011;49442;45.640;13.812;2023-08-01T06:39:54;4.05;;;1.50;;
63312;SDS011;49442;45.640;13.812;2023-08-01T06:42:20;2.63;;;1.83;;
63312;SDS011;49442;45.640;13.812;2023-08-01T06:44:46;2.90;;;1.50;;
63312;SDS011;49442;45.640;13.812;2023-08-01T06:47:11;3.00;;;1.52;;
63312;SDS011;49442;45.640;13.812;2023-08-01T06:49:37;9.35;;;1.52;;
63312;SDS011;49442;45.640;13.812;2023-08-01T06:52:03;7.53;;;1.90;;
63312;SDS011;49442;45.640;13.812;2023-08-01T06:54:29;3.90;;;1.77;;
63312;SDS011;49442;45.640;13.812;2023-08-01T06:56:54;4.50;;;1.98;;
63312;SDS011;49442;45.640;13.812;2023-08-01T06:59:20;6.82;;;1.85;;
63312;SDS011;49442;45.640;13.812;2023-08-01T07:01:46;5.95;;;1.52;;
63312;SDS011;49442;45.640;13.812;2023-08-01T07:04:12;6.88;;;1.80;;
63312;SDS011;49442;45.640;13.812;2023-08-01T07:06:38;8.73;;;1.70;;
63312;SDS011;49442;45.640;13.812;2023-08-01T07:09:05;6.43;;;2.38;;
63312;SDS011;49442;45.640;13.812;2023-08-01T07:11:31;2.30;;;1.40;;
63312;SDS011;49442;45.640;13.812;2023-08-01T07:13:57;2.95;;;1.77;;
63312;SDS011;49442;45.640;13.812;2023-08-01T07:16:23;5.38;;;1.80;;
63312;SDS011;49442;45.640;13.812;2023-08-01T07:18:48;4.18;;;1.90;;
63312;SDS011;49442;45.640;13.812;2023-08-01T07:21:15;3.50;;;1.38;;
63312;SDS011;49442;45.640;13.812;2023-08-01T07:23:41;4.15;;;2.00;;
63312;SDS011;49442;45.640;13.812;2023-08-01T07:26:07;2.67;;;1.70;;
63312;SDS011;49442;45.640;13.812;2023-08-01T07:28:33;4.13;;;1.38;;
63312;SDS011;49442;45.640;13.812;2023-08-01T07:30:59;2.42;;;1.65;;
63312;SDS011;49442;45.640;13.812;2023-08-01T07:33:26;4.20;;;1.88;;
63312;SDS011;49442;45.640;13.812;2023-08-01T07:35:51;3.47;;;1.48;;
63312;SDS011;49442;45.640;13.812;2023-08-01T07:38:17;2.83;;;2.00;;
63312;SDS011;49442;45.640;13.812;2023-08-01T07:40:43;1.60;;;1.38;;
63312;SDS011;49442;45.640;13.812;2023-08-01T07:43:08;2.40;;;1.58;;
63312;SDS011;49442;45.640;13.812;2023-08-01T07:45:34;5.50;;;1.77;;
63312;SDS011;49442;45.640;13.812;2023-08-01T07:48:00;2.50;;;1.65;;
63312;SDS011;49442;45.640;13.812;2023-08-01T07:50:26;4.72;;;1.60;;
63312;SDS011;49442;45.640;13.812;2023-08-01T07:52:51;2.78;;;1.55;;
63312;SDS011;49442;45.640;13.812;2023-08-01T07:55:17;1.60;;;1.48;;
63312;SDS011;49442;45.640;13.812;2023-08-01T07:57:43;3.92;;;1.80;;
63312;SDS011;49442;45.640;13.812;2023-08-01T08:00:10;5.05;;;1.80;;
63312;SDS011;49442;45.640;13.812;2023-08-01T08:02:36;4.10;;;1.75;;
63312;SDS011;49442;45.640;13.812;2023-08-01T08:05:01;3.80;;;1.50;;
63312;SDS011;49442;45.640;13.812;2023-08-01T08:07:27;3.88;;;1.60;;
63312;SDS011;49442;45.640;13.812;2023-08-01T08:09:53;4.18;;;1.88;;
63312;SDS011;49442;45.640;13.812;2023-08-01T08:12:20;2.03;;;1.70;;
63312;SDS011;49442;45.640;13.812;2023-08-01T08:14:47;3.95;;;1.73;;
63312;SDS011;49442;45.640;13.812;2023-08-01T08:17:13;1.85;;;1.60;;
63312;SDS011;49442;45.640;13.812;2023-08-01T08:19:38;1.63;;;1.27;;
63312;SDS011;49442;45.640;13.812;2023-08-01T08:22:04;4.50;;;1.70;;
63312;SDS011;49442;45.640;13.812;2023-08-01T08:24:30;2.55;;;1.60;;
63312;SDS011;49442;45.640;13.812;2023-08-01T08:26:55;4.43;;;1.65;;
63312;SDS011;49442;45.640;13.812;2023-08-01T08:29:21;3.15;;;1.65;;
63312;SDS011;49442;45.640;13.812;2023-08-01T08:31:47;6.10;;;1.70;;
63312;SDS011;49442;45.640;13.812;2023-08-01T08:34:13;2.28;;;1.95;;
63312;SDS011;49442;45.640;13.812;2023-08-01T08:36:38;5.43;;;1.80;;
63312;SDS011;49442;45.640;13.812;2023-08-01T08:39:04;2.97;;;1.90;;
63312;SDS011;49442;45.640;13.812;2023-08-01T08:41:32;2.00;;;1.40;;
63312;SDS011;49442;45.640;13.812;2023-08-01T08:44:03;3.83;;;1.80;;
63312;SDS011;49442;45.640;13.812;2023-08-01T08:46:32;3.17;;;1.70;;
63312;SDS011;49442;45.640;13.812;2023-08-01T08:49:00;3.17;;;1.60;;
63312;SDS011;49442;45.640;13.812;2023-08-01T08:51:26;1.75;;;1.52;;
63312;SDS011;49442;45.640;13.812;2023-08-01T08:53:53;2.75;;;1.80;;
63312;SDS011;49442;45.640;13.812;2023-08-01T08:56:20;4.57;;;1.50;;
63312;SDS011;49442;45.640;13.812;2023-08-01T08:58:45;5.55;;;1.50;;
63312;SDS011;49442;45.640;13.812;2023-08-01T09:01:12;4.40;;;1.77;;
63312;SDS011;49442;45.640;13.812;2023-08-01T09:03:38;2.55;;;1.55;;
63312;SDS011;49442;45.640;13.812;2023-08-01T09:06:09;2.28;;;1.60;;
63312;SDS011;49442;45.640;13.812;2023-08-01T09:08:40;4.78;;;2.17;;
63312;SDS011;49442;45.640;13.812;2023-08-01T09:11:16;5.20;;;2.13;;
63312;SDS011;49442;45.640;13.812;2023-08-01T09:13:41;2.65;;;1.80;;
63312;SDS011;49442;45.640;13.812;2023-08-01T09:16:07;4.72;;;1.67;;
63312;SDS011;49442;45.640;13.812;2023-08-01T09:18:34;5.53;;;2.00;;
63312;SDS011;49442;45.640;13.812;2023-08-01T09:21:00;3.58;;;1.83;;
63312;SDS011;49442;45.640;13.812;2023-08-01T09:23:27;5.30;;;2.00;;
63312;SDS011;49442;45.640;13.812;2023-08-01T09:25:55;4.57;;;1.80;;
63312;SDS011;49442;45.640;13.812;2023-08-01T09:28:22;3.10;;;2.03;;
63312;SDS011;49442;45.640;13.812;2023-08-01T09:30:52;3.28;;;2.00;;
63312;SDS011;49442;45.640;13.812;2023-08-01T09:33:20;5.40;;;2.28;;
63312;SDS011;49442;45.640;13.812;2023-08-01T09:35:48;5.28;;;1.77;;
63312;SDS011;49442;45.640;13.812;2023-08-01T09:38:15;2.88;;;1.98;;
63312;SDS011;49442;45.640;13.812;2023-08-01T09:40:42;5.28;;;2.00;;
63312;SDS011;49442;45.640;13.812;2023-08-01T09:43:10;3.47;;;2.03;;
63312;SDS011;49442;45.640;13.812;2023-08-01T09:45:36;3.53;;;2.38;;
63312;SDS011;49442;45.640;13.812;2023-08-01T09:48:03;4.53;;;2.70;;
63312;SDS011;49442;45.640;13.812;2023-08-01T09:50:28;5.50;;;2.08;;
63312;SDS011;49442;45.640;13.812;2023-08-01T09:52:54;3.10;;;1.98;;
63312;SDS011;49442;45.640;13.812;2023-08-01T09:55:26;3.70;;;1.80;;
63312;SDS011;49442;45.640;13.812;2023-08-01T09:57:57;4.75;;;2.28;;
63312;SDS011;49442;45.640;13.812;2023-08-01T10:00:27;5.72;;;1.92;;
63312;SDS011;49442;45.640;13.812;2023-08-01T10:02:55;2.13;;;1.88;;
63312;SDS011;49442;45.640;13.812;2023-08-01T10:07:54;4.55;;;2.20;;
63312;SDS011;49442;45.640;13.812;2023-08-01T10:10:23;2.38;;;1.92;;
63312;SDS011;49442;45.640;13.812;2023-08-01T10:12:50;5.38;;;2.13;;
63312;SDS011;49442;45.640;13.812;2023-08-01T10:15:16;3.92;;;2.30;;
63312;SDS011;49442;45.640;13.812;2023-08-01T10:17:42;3.92;;;2.58;;
63312;SDS011;49442;45.640;13.812;2023-08-01T10:20:09;3.08;;;2.00;;
63312;SDS011;49442;45.640;13.812;2023-08-01T10:22:37;3.38;;;2.10;;
63312;SDS011;49442;45.640;13.812;2023-08-01T10:25:04;4.28;;;2.53;;
63312;SDS011;49442;45.640;13.812;2023-08-01T10:27:30;4.28;;;2.05;;
63312;SDS011;49442;45.640;13.812;2023-08-01T10:30:00;4.15;;;2.13;;
63312;SDS011;49442;45.640;13.812;2023-08-01T10:32:39;4.57;;;2.20;;
63312;SDS011;49442;45.640;13.812;2023-08-01T10:35:06;6.90;;;2.53;;
63312;SDS011;49442;45.640;13.812;2023-08-01T10:37:39;7.78;;;2.30;;
63312;SDS011;49442;45.640;13.812;2023-08-01T10:40:08;5.03;;;2.05;;
63312;SDS011;49442;45.640;13.812;2023-08-01T10:42:38;3.22;;;2.30;;
63312;SDS011;49442;45.640;13.812;2023-08-01T10:45:04;4.80;;;2.37;;
63312;SDS011;49442;45.640;13.812;2023-08-01T10:47:31;5.07;;;2.20;;
63312;SDS011;49442;45.640;13.812;2023-08-01T10:49:57;2.13;;;1.45;;
63312;SDS011;49442;45.640;13.812;2023-08-01T10:52:23;5.35;;;2.40;;
63312;SDS011;49442;45.640;13.812;2023-08-01T10:57:26;2.97;;;1.98;;
63312;SDS011;49442;45.640;13.812;2023-08-01T10:59:56;5.63;;;1.95;;
63312;SDS011;49442;45.640;13.812;2023-08-01T11:02:24;3.00;;;1.80;;
63312;SDS011;49442;45.640;13.812;2023-08-01T11:04:58;2.80;;;2.00;;
63312;SDS011;49442;45.640;13.812;2023-08-01T11:07:25;9.20;;;2.03;;
63312;SDS011;49442;45.640;13.812;2023-08-01T11:10:02;3.88;;;1.73;;
63312;SDS011;49442;45.640;13.812;2023-08-01T11:12:30;2.70;;;1.63;;
63312;SDS011;49442;45.640;13.812;2023-08-01T11:14:59;2.38;;;1.88;;
63312;SDS011;49442;45.640;13.812;2023-08-01T11:17:25;1.88;;;1.60;;
63312;SDS011;49442;45.640;13.812;2023-08-01T11:19:51;6.38;;;2.08;;
63312;SDS011;49442;45.640;13.812;2023-08-01T11:22:24;3.92;;;1.70;;
63312;SDS011;49442;45.640;13.812;2023-08-01T11:24:50;4.13;;;1.85;;
63312;SDS011;49442;45.640;13.812;2023-08-01T11:27:16;2.90;;;1.88;;
63312;SDS011;49442;45.640;13.812;2023-08-01T11:29:42;3.03;;;2.05;;
63312;SDS011;49442;45.640;13.812;2023-08-01T11:32:08;3.53;;;1.77;;
63312;SDS011;49442;45.640;13.812;2023-08-01T11:34:40;3.08;;;1.55;;
63312;SDS011;49442;45.640;13.812;2023-08-01T11:37:06;2.75;;;1.92;;
63312;SDS011;49442;45.640;13.812;2023-08-01T11:39:32;2.85;;;1.80;;
63312;SDS011;49442;45.640;13.812;2023-08-01T11:41:59;5.18;;;1.85;;
63312;SDS011;49442;45.640;13.812;2023-08-01T11:44:25;6.75;;;1.70;;
63312;SDS011;49442;45.640;13.812;2023-08-01T11:46:51;4.00;;;2.00;;
63312;SDS011;49442;45.640;13.812;2023-08-01T11:49:17;2.70;;;1.77;;
63312;SDS011;49442;45.640;13.812;2023-08-01T11:51:43;3.83;;;2.00;;
63312;SDS011;49442;45.640;13.812;2023-08-01T11:54:10;2.53;;;1.77;;
63312;SDS011;49442;45.640;13.812;2023-08-01T11:56:38;6.47;;;2.25;;
63312;SDS011;49442;45.640;13.812;2023-08-01T11:59:10;2.38;;;2.17;;
63312;SDS011;49442;45.640;13.812;2023-08-01T12:01:41;4.20;;;1.60;;
63312;SDS011;49442;45.640;13.812;2023-08-01T12:04:08;6.55;;;1.80;;
63312;SDS011;49442;45.640;13.812;2023-08-01T12:06:34;8.40;;;2.40;;
63312;SDS011;49442;45.640;13.812;2023-08-01T12:09:11;4.70;;;2.35;;
63312;SDS011;49442;45.640;13.812;2023-08-01T12:11:39;5.28;;;2.00;;
63312;SDS011;49442;45.640;13.812;2023-08-01T12:16:40;8.15;;;2.50;;
63312;SDS011;49442;45.640;13.812;2023-08-01T12:19:16;2.70;;;1.92;;
63312;SDS011;49442;45.640;13.812;2023-08-01T12:21:43;8.35;;;2.30;;
63312;SDS011;49442;45.640;13.812;2023-08-01T12:24:09;4.20;;;2.03;;
63312;SDS011;49442;45.640;13.812;2023-08-01T12:26:35;2.50;;;1.98;;
63312;SDS011;49442;45.640;13.812;2023-08-01T12:29:01;4.60;;;2.08;;
63312;SDS011;49442;45.640;13.812;2023-08-01T12:31:27;2.67;;;1.80;;
63312;SDS011;49442;45.640;13.812;2023-08-01T12:33:53;6.15;;;2.35;;
63312;SDS011;49442;45.640;13.812;2023-08-01T12:36:22;2.65;;;1.90;;
63312;SDS011;49442;45.640;13.812;2023-08-01T12:38:47;3.72;;;2.05;;
63312;SDS011;49442;45.640;13.812;2023-08-01T12:41:14;4.22;;;2.30;;
63312;SDS011;49442;45.640;13.812;2023-08-01T12:43:39;4.85;;;2.03;;
63312;SDS011;49442;45.640;13.812;2023-08-01T12:46:05;3.63;;;2.25;;
63312;SDS011;49442;45.640;13.812;2023-08-01T12:48:31;7.28;;;2.20;;
63312;SDS011;49442;45.640;13.812;2023-08-01T12:50:56;3.75;;;2.60;;
63312;SDS011;49442;45.640;13.812;2023-08-01T12:53:22;3.95;;;1.95;;
63312;SDS011;49442;45.640;13.812;2023-08-01T12:55:48;5.45;;;2.53;;
63312;SDS011;49442;45.640;13.812;2023-08-01T12:58:15;4.65;;;2.20;;
63312;SDS011;49442;45.640;13.812;2023-08-01T13:00:42;2.90;;;1.98;;
63312;SDS011;49442;45.640;13.812;2023-08-01T13:03:09;3.60;;;2.20;;
63312;SDS011;49442;45.640;13.812;2023-08-01T13:05:35;3.63;;;2.03;;
63312;SDS011;49442;45.640;13.812;2023-08-01T13:08:05;3.35;;;1.90;;
63312;SDS011;49442;45.640;13.812;2023-08-01T13:10:31;4.22;;;2.13;;
63312;SDS011;49442;45.640;13.812;2023-08-01T13:12:58;5.82;;;1.63;;
63312;SDS011;49442;45.640;13.812;2023-08-01T13:15:26;2.97;;;1.75;;
63312;SDS011;49442;45.640;13.812;2023-08-01T13:17:52;6.18;;;2.03;;
63312;SDS011;49442;45.640;13.812;2023-08-01T13:20:18;2.83;;;1.75;;
63312;SDS011;49442;45.640;13.812;2023-08-01T13:22:51;3.00;;;2.03;;
63312;SDS011;49442;45.640;13.812;2023-08-01T13:25:19;4.55;;;2.25;;
63312;SDS011;49442;45.640;13.812;2023-08-01T13:27:45;7.30;;;2.20;;
63312;SDS011;49442;45.640;13.812;2023-08-01T13:30:11;6.03;;;2.60;;
63312;SDS011;49442;45.640;13.812;2023-08-01T13:32:39;4.68;;;2.42;;
63312;SDS011;49442;45.640;13.812;2023-08-01T13:35:05;3.25;;;2.40;;
63312;SDS011;49442;45.640;13.812;2023-08-01T13:37:31;3.65;;;2.50;;
63312;SDS011;49442;45.640;13.812;2023-08-01T13:39:57;4.45;;;2.80;;
63312;SDS011;49442;45.640;13.812;2023-08-01T13:42:23;5.28;;;2.70;;
63312;SDS011;49442;45.640;13.812;2023-08-01T13:44:49;8.85;;;2.70;;
63312;SDS011;49442;45.640;13.812;2023-08-01T13:47:14;10.07;;;2.63;;
63312;SDS011;49442;45.640;13.812;2023-08-01T13:49:40;6.85;;;2.70;;
63312;SDS011;49442;45.640;13.812;2023-08-01T13:52:06;7.70;;;3.10;;
63312;SDS011;49442;45.640;13.812;2023-08-01T13:54:32;7.35;;;3.25;;
63312;SDS011;49442;45.640;13.812;2023-08-01T13:56:57;11.02;;;2.78;;
63312;SDS011;49442;45.640;13.812;2023-08-01T13:59:23;5.00;;;2.72;;
63312;SDS011;49442;45.640;13.812;2023-08-01T14:01:49;8.48;;;3.33;;
63312;SDS011;49442;45.640;13.812;2023-08-01T14:04:14;4.22;;;2.90;;
63312;SDS011;49442;45.640;13.812;2023-08-01T14:06:41;5.50;;;3.00;;
63312;SDS011;49442;45.640;13.812;2023-08-01T14:09:07;9.98;;;3.45;;
63312;SDS011;49442;45.640;13.812;2023-08-01T14:11:34;9.75;;;3.55;;
63312;SDS011;49442;45.640;13.812;2023-08-01T14:14:00;10.05;;;3.67;;
63312;SDS011;49442;45.640;13.812;2023-08-01T14:16:26;7.35;;;3.58;;
63312;SDS011;49442;45.640;13.812;2023-08-01T14:18:51;4.45;;;3.03;;
63312;SDS011;49442;45.640;13.812;2023-08-01T14:21:17;5.18;;;3.22;;
63312;SDS011;49442;45.640;13.812;2023-08-01T14:23:43;6.05;;;2.78;;
63312;SDS011;49442;45.640;13.812;2023-08-01T14:26:09;4.72;;;2.90;;
63312;SDS011;49442;45.640;13.812;2023-08-01T14:28:34;7.82;;;3.42;;
63312;SDS011;49442;45.640;13.812;2023-08-01T14:31:01;8.27;;;3.20;;
63312;SDS011;49442;45.640;13.812;2023-08-01T14:33:27;10.30;;;2.92;;
63312;SDS011;49442;45.640;13.812;2023-08-01T14:35:53;6.30;;;3.00;;